Time;durP1;ratioP1;P1;durP2;ratioP2;P2;SDS_P1;SDS_P2;PMS_P1;PMS_P2;Temp;Humidity;BMP_temperature;BMP_pressure;BME280_temperature;BME280_humidity;BME280_pressure;Samples;Min_cycle;Max_cycle;Signal;HPM_P1;HPM_P2
2023/07/04 00:01:10;;;;;;;7.63;6.05;;;20.60;99.90;;;;;;4993236;28;20042;-66
2023/07/04 00:03:37;;;;;;;7.35;5.85;;;20.70;99.90;;;;;;4990386;28;20116;-66
2023/07/04 00:06:05;;;;;;;8.65;6.15;;;20.60;99.90;;;;;;4984175;28;20506;-65
2023/07/04 00:08:35;;;;;;;7.68;5.88;;;20.60;99.90;;;;;;4983161;28;20517;-65
2023/07/04 00:11:02;;;;;;;8.90;6.32;;;20.70;99.90;;;;;;4992081;28;20083;-65
2023/07/04 00:13:33;;;;;;;10.63;6.22;;;20.80;99.90;;;;;;4993169;28;20049;-65
2023/07/04 00:15:59;;;;;;;7.57;5.90;;;20.80;99.90;;;;;;4992480;28;20160;-65
2023/07/04 00:18:27;;;;;;;6.90;6.10;;;20.70;99.90;;;;;;4991731;28;20533;-65
2023/07/04 00:21:03;;;;;;;7.20;5.75;;;20.70;99.90;;;;;;4978524;28;20042;-65
2023/07/04 00:23:35;;;;;;;9.30;6.65;;;20.70;99.90;;;;;;4993217;28;20038;-65
2023/07/04 00:26:02;;;;;;;8.88;6.15;;;20.60;99.90;;;;;;4992543;28;20044;-65
2023/07/04 00:28:28;;;;;;;9.80;6.07;;;20.60;99.90;;;;;;4992152;28;20038;-65
2023/07/04 00:30:55;;;;;;;9.60;7.00;;;20.60;99.90;;;;;;4983313;28;20034;-65
2023/07/04 00:33:23;;;;;;;9.45;6.40;;;20.60;99.90;;;;;;4991562;28;20033;-65
2023/07/04 00:35:49;;;;;;;8.45;5.70;;;20.60;99.90;;;;;;4995999;28;20112;-65
2023/07/04 00:38:19;;;;;;;8.30;6.18;;;20.60;99.90;;;;;;4994334;28;20046;-65
2023/07/04 00:40:45;;;;;;;7.82;6.53;;;20.60;99.90;;;;;;4987701;28;20058;-65
2023/07/04 00:43:12;;;;;;;9.15;6.47;;;20.50;99.90;;;;;;4985774;28;20461;-65
2023/07/04 00:45:43;;;;;;;9.40;6.03;;;20.50;99.90;;;;;;4989863;28;20619;-68
2023/07/04 00:48:15;;;;;;;9.47;6.20;;;20.50;99.90;;;;;;4989769;28;20030;-69
2023/07/04 00:50:47;;;;;;;8.77;6.75;;;20.50;99.90;;;;;;4992492;28;20113;-69
2023/07/04 00:53:13;;;;;;;;;;;20.50;99.90;;;;;;4993489;28;20034;-68
2023/07/04 00:55:43;;;;;;;7.18;6.28;;;20.60;99.90;;;;;;4990257;28;19953;-68
2023/07/04 00:58:09;;;;;;;8.80;5.80;;;20.50;99.90;;;;;;4992401;28;20034;-69
2023/07/04 01:00:37;;;;;;;10.85;6.20;;;20.60;99.90;;;;;;4986952;28;20411;-69
2023/07/04 01:03:20;;;;;;;8.32;6.22;;;20.50;99.90;;;;;;4982848;28;20034;-69
2023/07/04 01:05:52;;;;;;;10.73;6.38;;;20.60;99.90;;;;;;4987792;28;20034;-68
2023/07/04 01:08:32;;;;;;;8.68;6.63;;;20.60;99.90;;;;;;4992427;28;20506;-69
2023/07/04 01:11:01;;;;;;;8.13;6.47;;;20.60;99.90;;;;;;4986746;28;20033;-69
2023/07/04 01:13:38;;;;;;;9.80;7.32;;;20.60;99.90;;;;;;4991335;28;20041;-68
2023/07/04 01:16:09;;;;;;;8.77;6.85;;;20.60;99.90;;;;;;4986751;28;20529;-68
2023/07/04 01:18:37;;;;;;;8.20;6.88;;;20.60;99.90;;;;;;4986765;28;20049;-68
2023/07/04 01:21:05;;;;;;;10.95;7.43;;;20.60;99.90;;;;;;4985847;28;20528;-68
2023/07/04 01:23:39;;;;;;;10.23;6.57;;;20.60;99.90;;;;;;4988546;28;20776;-68
2023/07/04 01:26:29;;;;;;;8.13;6.90;;;20.60;99.90;;;;;;4982540;28;20031;-69
2023/07/04 01:28:55;;;;;;;11.88;7.00;;;20.50;99.90;;;;;;4988695;28;20128;-69
2023/07/04 01:31:25;;;;;;;8.60;6.85;;;20.50;99.90;;;;;;4970818;28;20045;-68
2023/07/04 01:33:51;;;;;;;8.50;6.88;;;20.50;99.90;;;;;;4982942;28;20103;-68
2023/07/04 01:36:20;;;;;;;10.02;7.20;;;20.50;99.90;;;;;;4990339;28;20545;-68
2023/07/04 01:38:46;;;;;;;10.10;7.10;;;20.50;99.90;;;;;;4984182;28;20048;-67
2023/07/04 01:41:12;;;;;;;10.40;7.25;;;20.50;99.90;;;;;;4968993;28;20041;-65
2023/07/04 01:43:38;;;;;;;9.90;7.28;;;20.50;99.90;;;;;;4985960;28;20090;-65
2023/07/04 01:46:04;;;;;;;10.20;7.00;;;20.50;99.90;;;;;;4986293;28;20074;-65
2023/07/04 01:48:30;;;;;;;7.50;6.57;;;20.60;99.90;;;;;;4978993;28;20044;-65
2023/07/04 01:50:56;;;;;;;11.43;6.72;;;20.50;99.90;;;;;;4984917;28;20585;-65
2023/07/04 01:53:22;;;;;;;7.80;6.82;;;20.50;99.90;;;;;;4984996;28;20057;-65
2023/07/04 01:55:47;;;;;;;10.02;7.10;;;20.50;99.90;;;;;;4990002;28;20045;-65
2023/07/04 01:58:13;;;;;;;9.20;7.25;;;20.40;99.90;;;;;;4984132;28;20042;-65
2023/07/04 02:00:39;;;;;;;8.13;6.43;;;20.30;99.90;;;;;;4989408;28;20046;-65
2023/07/04 02:03:04;;;;;;;9.25;6.47;;;20.20;99.90;;;;;;4974870;28;20048;-65
2023/07/04 02:05:30;;;;;;;8.13;6.32;;;20.20;99.90;;;;;;4973008;28;20040;-65
2023/07/04 02:07:56;;;;;;;7.78;6.68;;;20.20;99.90;;;;;;4996778;28;20114;-65
2023/07/04 02:10:22;;;;;;;6.80;6.05;;;20.20;99.90;;;;;;4994614;28;20712;-65
2023/07/04 02:12:47;;;;;;;8.82;6.53;;;20.20;99.90;;;;;;4995789;28;20050;-65
2023/07/04 02:15:13;;;;;;;8.65;7.20;;;20.10;99.90;;;;;;4993628;28;20044;-65
2023/07/04 02:17:40;;;;;;;8.90;6.85;;;20.10;99.90;;;;;;4990635;28;20092;-65
2023/07/04 02:20:06;;;;;;;8.52;6.90;;;20.20;99.90;;;;;;4973066;28;20545;-65
2023/07/04 02:22:32;;;;;;;11.32;6.70;;;20.20;99.90;;;;;;4988261;28;20034;-65
2023/07/04 02:24:58;;;;;;;8.85;6.65;;;20.20;99.90;;;;;;4988762;28;20046;-65
2023/07/04 02:27:24;;;;;;;10.30;6.80;;;20.20;99.90;;;;;;4989995;28;20029;-65
2023/07/04 02:29:49;;;;;;;7.88;6.57;;;20.30;99.90;;;;;;4991497;28;20050;-65
2023/07/04 02:32:15;;;;;;;9.20;7.15;;;20.30;99.90;;;;;;4985310;28;20387;-65
2023/07/04 02:34:41;;;;;;;7.78;6.70;;;20.30;99.90;;;;;;4989184;28;20607;-65
2023/07/04 02:37:07;;;;;;;9.88;6.97;;;20.30;99.90;;;;;;4993485;28;20108;-65
2023/07/04 02:39:32;;;;;;;8.63;6.43;;;20.30;99.90;;;;;;4994902;28;20050;-65
2023/07/04 02:41:58;;;;;;;9.27;7.15;;;20.30;99.90;;;;;;4991898;28;20049;-65
2023/07/04 02:44:23;;;;;;;8.85;6.80;;;20.30;99.90;;;;;;4991686;28;20053;-65
2023/07/04 02:46:49;;;;;;;9.93;6.78;;;20.30;99.90;;;;;;4991965;28;20088;-65
2023/07/04 02:49:15;;;;;;;10.07;6.93;;;20.20;99.90;;;;;;4988256;28;20498;-65
2023/07/04 02:51:41;;;;;;;10.18;6.32;;;20.20;99.90;;;;;;4990801;28;20057;-65
2023/07/04 02:54:06;;;;;;;10.02;7.28;;;20.20;99.90;;;;;;4983430;28;20153;-68
2023/07/04 02:56:32;;;;;;;9.05;6.93;;;20.20;99.90;;;;;;4991022;28;20319;-68
2023/07/04 02:58:58;;;;;;;9.82;6.68;;;20.30;99.90;;;;;;4991745;28;20150;-67
2023/07/04 03:01:23;;;;;;;8.60;6.63;;;20.20;99.90;;;;;;4990663;28;20121;-68
2023/07/04 03:03:49;;;;;;;8.82;6.88;;;20.30;99.90;;;;;;4971647;28;20042;-68
2023/07/04 03:06:15;;;;;;;8.32;6.57;;;20.20;99.90;;;;;;4995609;28;20045;-68
2023/07/04 03:08:41;;;;;;;8.38;6.40;;;20.30;99.90;;;;;;4989506;28;20057;-68
2023/07/04 03:11:06;;;;;;;9.38;6.53;;;20.30;99.90;;;;;;4993912;28;20039;-66
2023/07/04 03:13:34;;;;;;;7.82;6.07;;;20.20;99.90;;;;;;4988456;28;20034;-65
2023/07/04 03:15:59;;;;;;;7.60;6.43;;;20.30;99.90;;;;;;4989059;28;20030;-66
2023/07/04 03:18:26;;;;;;;7.82;5.57;;;20.30;99.90;;;;;;4993819;28;20057;-65
2023/07/04 03:20:52;;;;;;;9.10;5.70;;;20.40;99.90;;;;;;4973376;28;20121;-66
2023/07/04 03:23:18;;;;;;;8.80;5.45;;;20.40;99.90;;;;;;4989718;28;20041;-65
2023/07/04 03:25:43;;;;;;;8.10;6.22;;;20.50;99.90;;;;;;4987469;28;20038;-65
2023/07/04 03:28:09;;;;;;;8.52;6.22;;;20.50;99.90;;;;;;4990346;28;20584;-65
2023/07/04 03:30:34;;;;;;;7.68;6.13;;;20.50;99.90;;;;;;4988475;28;20046;-65
2023/07/04 03:33:00;;;;;;;7.70;6.35;;;20.50;99.90;;;;;;4990243;28;20034;-68
2023/07/04 03:35:26;;;;;;;7.25;5.80;;;20.40;99.90;;;;;;4987450;28;20076;-68
2023/07/04 03:37:52;;;;;;;8.98;6.25;;;20.40;99.90;;;;;;4990035;28;20375;-68
2023/07/04 03:40:18;;;;;;;7.20;5.80;;;20.50;99.90;;;;;;4991856;28;20042;-68
2023/07/04 03:42:43;;;;;;;9.00;6.00;;;20.50;99.90;;;;;;4971190;28;20050;-68
2023/07/04 03:45:10;;;;;;;7.30;5.75;;;20.40;99.90;;;;;;4992334;28;20077;-68
2023/07/04 03:47:36;;;;;;;7.32;5.85;;;20.40;99.90;;;;;;4992027;28;20081;-68
2023/07/04 03:50:02;;;;;;;7.88;5.85;;;20.40;99.90;;;;;;4994394;28;20113;-69
2023/07/04 03:52:28;;;;;;;9.80;5.75;;;20.30;99.90;;;;;;4988270;28;21543;-69
2023/07/04 03:54:53;;;;;;;10.10;6.10;;;20.30;99.90;;;;;;4992063;28;20048;-68
2023/07/04 03:57:19;;;;;;;6.38;5.53;;;20.20;99.90;;;;;;4994475;28;20042;-69
2023/07/04 03:59:45;;;;;;;8.50;6.15;;;20.00;99.90;;;;;;4988502;28;20365;-69
2023/07/04 04:02:11;;;;;;;7.32;5.75;;;19.90;99.90;;;;;;4985801;28;20647;-68
2023/07/04 04:04:39;;;;;;;10.50;6.15;;;19.80;99.90;;;;;;4989905;28;20406;-69
2023/07/04 04:07:09;;;;;;;7.22;5.50;;;19.70;99.90;;;;;;4994541;28;20053;-69
2023/07/04 04:09:36;;;;;;;7.85;6.03;;;19.70;99.90;;;;;;4990593;28;20042;-68
2023/07/04 04:12:04;;;;;;;7.90;5.97;;;19.80;99.90;;;;;;4989772;28;20030;-68
2023/07/04 04:14:30;;;;;;;7.35;5.72;;;19.80;99.90;;;;;;4998827;28;20034;-68
2023/07/04 04:16:57;;;;;;;7.55;5.93;;;19.80;99.90;;;;;;4993766;28;20650;-68
2023/07/04 04:19:23;;;;;;;7.70;5.40;;;19.70;99.90;;;;;;4989900;28;20053;-68
2023/07/04 04:21:49;;;;;;;8.95;5.40;;;19.50;99.90;;;;;;4983254;28;20512;-68
2023/07/04 04:24:15;;;;;;;8.02;5.50;;;19.40;99.90;;;;;;4989353;28;20038;-69
2023/07/04 04:26:40;;;;;;;9.38;5.80;;;19.40;99.90;;;;;;4992180;28;20033;-65
2023/07/04 04:29:07;;;;;;;8.50;5.70;;;19.40;99.90;;;;;;4987613;28;20573;-65
2023/07/04 04:31:37;;;;;;;7.85;5.82;;;19.40;99.90;;;;;;4990869;28;20030;-65
2023/07/04 04:34:07;;;;;;;9.40;6.05;;;19.40;99.90;;;;;;4976245;28;20054;-66
2023/07/04 04:36:33;;;;;;;8.07;5.65;;;19.40;99.90;;;;;;4994872;28;20046;-65
2023/07/04 04:39:00;;;;;;;7.47;5.20;;;19.40;99.90;;;;;;4991448;28;20049;-65
2023/07/04 04:41:27;;;;;;;6.13;4.88;;;19.40;99.90;;;;;;4987262;28;20050;-65
2023/07/04 04:43:54;;;;;;;8.13;5.70;;;19.40;99.90;;;;;;4988055;28;20399;-68
2023/07/04 04:46:20;;;;;;;8.65;5.35;;;19.50;99.90;;;;;;4993456;28;20045;-65
2023/07/04 04:48:46;;;;;;;11.15;5.45;;;19.50;99.90;;;;;;4985711;28;20045;-65
2023/07/04 04:51:15;;;;;;;9.50;5.90;;;19.60;99.90;;;;;;4989649;28;20441;-66
2023/07/04 04:53:44;;;;;;;7.15;5.22;;;19.70;99.90;;;;;;4991923;28;20057;-65
2023/07/04 04:56:11;;;;;;;9.30;6.10;;;19.70;99.90;;;;;;4989381;28;20042;-65
2023/07/04 04:58:37;;;;;;;6.50;5.30;;;19.70;99.90;;;;;;4988329;28;20043;-65
2023/07/04 05:01:14;;;;;;;8.52;5.47;;;19.80;99.90;;;;;;4989910;28;20088;-65
2023/07/04 05:03:41;;;;;;;8.77;5.97;;;19.80;99.90;;;;;;4988132;28;20076;-65
2023/07/04 05:06:07;;;;;;;7.50;5.35;;;19.80;99.90;;;;;;4993411;28;20440;-65
2023/07/04 05:08:33;;;;;;;6.90;6.10;;;19.90;99.90;;;;;;4988811;28;20030;-65
2023/07/04 05:11:06;;;;;;;10.20;6.05;;;19.90;99.90;;;;;;4989421;28;20042;-65
2023/07/04 05:13:33;;;;;;;7.70;5.93;;;19.90;99.90;;;;;;4988127;28;20030;-65
2023/07/04 05:16:03;;;;;;;6.43;5.72;;;19.80;99.90;;;;;;4988933;28;20038;-65
2023/07/04 05:18:30;;;;;;;7.38;5.15;;;19.90;99.90;;;;;;4981409;28;20133;-66
2023/07/04 05:21:08;;;;;;;7.25;6.05;;;19.90;99.90;;;;;;4983628;28;20068;-65
2023/07/04 05:23:35;;;;;;;8.43;5.90;;;19.90;99.90;;;;;;4990630;28;20038;-69
2023/07/04 05:26:07;;;;;;;9.73;6.63;;;19.90;99.90;;;;;;4987233;28;20038;-69
2023/07/04 05:28:33;;;;;;;6.20;5.57;;;20.00;99.90;;;;;;4989662;28;20038;-69
2023/07/04 05:31:02;;;;;;;11.30;5.78;;;20.00;99.90;;;;;;4992099;28;20039;-68
2023/07/04 05:33:28;;;;;;;7.47;5.10;;;20.00;99.90;;;;;;4989706;28;20435;-69
2023/07/04 05:36:08;;;;;;;7.13;5.30;;;20.00;99.90;;;;;;4987110;28;20474;-68
2023/07/04 05:38:34;;;;;;;6.63;5.30;;;20.10;99.90;;;;;;4974338;28;20076;-65
2023/07/04 05:41:00;;;;;;;8.07;5.47;;;20.00;99.90;;;;;;4985128;28;20307;-69
2023/07/04 05:43:27;;;;;;;6.63;5.30;;;20.10;99.90;;;;;;4980359;28;20049;-69
2023/07/04 05:45:54;;;;;;;7.40;5.80;;;20.10;99.90;;;;;;4994632;28;20030;-69
2023/07/04 05:48:20;;;;;;;8.25;5.43;;;20.10;99.90;;;;;;4989337;28;20099;-69
2023/07/04 05:50:56;;;;;;;6.50;5.05;;;20.10;99.90;;;;;;4997909;28;20050;-69
2023/07/04 05:53:24;;;;;;;5.85;4.50;;;20.10;99.90;;;;;;4989140;28;20060;-69
2023/07/04 05:55:51;;;;;;;7.43;4.95;;;20.20;99.90;;;;;;4982060;28;20077;-69
2023/07/04 05:58:18;;;;;;;8.20;5.03;;;20.20;99.90;;;;;;4997342;28;20096;-69
2023/07/04 06:00:44;;;;;;;8.05;5.35;;;20.20;99.90;;;;;;4996574;28;20404;-65
2023/07/04 06:03:10;;;;;;;7.22;5.50;;;20.20;99.90;;;;;;5001576;28;20036;-65
2023/07/04 06:05:40;;;;;;;6.95;4.63;;;20.20;99.90;;;;;;4995203;28;20067;-65
2023/07/04 06:08:06;;;;;;;9.15;5.13;;;20.20;99.90;;;;;;4988213;28;20437;-65
2023/07/04 06:10:32;;;;;;;6.93;5.30;;;20.20;99.90;;;;;;4992524;28;20055;-65
2023/07/04 06:12:57;;;;;;;6.18;5.05;;;20.20;99.90;;;;;;5000411;28;20042;-66
2023/07/04 06:15:23;;;;;;;7.32;5.30;;;20.20;99.90;;;;;;4995393;28;20483;-65
2023/07/04 06:17:49;;;;;;;8.55;5.72;;;20.20;99.90;;;;;;4979915;28;20050;-66
2023/07/04 06:20:14;;;;;;;7.43;4.90;;;20.20;99.90;;;;;;4992260;28;20141;-65
2023/07/04 06:22:40;;;;;;;10.18;5.85;;;20.30;99.90;;;;;;4988773;28;20038;-65
2023/07/04 06:25:07;;;;;;;6.45;5.55;;;20.30;99.90;;;;;;4979393;28;21192;-66
2023/07/04 06:27:33;;;;;;;7.97;5.40;;;20.30;99.90;;;;;;4971229;28;20049;-66
2023/07/04 06:29:59;;;;;;;6.57;5.55;;;20.30;99.90;;;;;;4979924;28;20069;-65
2023/07/04 06:32:25;;;;;;;8.45;5.57;;;20.40;99.90;;;;;;4974696;28;20724;-65
2023/07/04 06:34:50;;;;;;;7.20;4.95;;;20.40;99.90;;;;;;4987977;28;20042;-67
2023/07/04 06:37:16;;;;;;;5.93;5.28;;;20.40;99.90;;;;;;4976748;28;20062;-65
2023/07/04 06:39:43;;;;;;;7.00;4.88;;;20.40;99.90;;;;;;4984587;28;20049;-65
2023/07/04 06:42:08;;;;;;;7.97;5.47;;;20.40;99.90;;;;;;4979447;28;20120;-66
2023/07/04 06:44:34;;;;;;;6.90;5.05;;;20.40;99.90;;;;;;4980443;28;20676;-66
2023/07/04 06:47:00;;;;;;;8.80;5.40;;;20.40;99.90;;;;;;4979149;28;20033;-66
2023/07/04 06:49:25;;;;;;;8.27;4.72;;;20.40;99.90;;;;;;4995468;28;20388;-66
2023/07/04 06:51:51;;;;;;;7.22;5.38;;;20.50;99.90;;;;;;4989550;28;20038;-64
2023/07/04 06:54:16;;;;;;;6.65;4.78;;;20.50;99.90;;;;;;4985484;28;21426;-63
2023/07/04 06:56:42;;;;;;;6.45;4.72;;;20.50;99.90;;;;;;4995524;28;20037;-64
2023/07/04 06:59:08;;;;;;;6.90;4.70;;;20.50;99.90;;;;;;4977195;28;20069;-64
2023/07/04 07:01:33;;;;;;;7.75;4.85;;;20.50;99.90;;;;;;4988342;28;20196;-63
2023/07/04 07:03:59;;;;;;;7.47;5.32;;;20.40;99.90;;;;;;4974734;28;20849;-71
2023/07/04 07:06:25;;;;;;;6.63;4.82;;;20.40;99.90;;;;;;4980009;28;20165;-64
2023/07/04 07:08:51;;;;;;;6.22;4.95;;;20.40;99.90;;;;;;4976249;28;20042;-62
2023/07/04 07:11:19;;;;;;;5.53;4.45;;;20.50;99.90;;;;;;4976470;28;20054;-63
2023/07/04 07:13:46;;;;;;;5.53;4.93;;;20.50;99.90;;;;;;4977947;28;20381;-63
2023/07/04 07:16:21;;;;;;;11.18;5.00;;;20.50;99.90;;;;;;4986031;28;20034;-63
2023/07/04 07:18:48;;;;;;;9.02;4.07;;;20.50;99.90;;;;;;4968233;28;20721;-63
2023/07/04 07:21:18;;;;;;;10.73;5.05;;;20.60;99.90;;;;;;4983925;28;20149;-63
2023/07/04 07:23:44;;;;;;;5.35;3.80;;;20.50;99.90;;;;;;4978664;28;20038;-63
2023/07/04 07:26:11;;;;;;;6.15;4.78;;;20.40;99.90;;;;;;4980282;28;20125;-63
2023/07/04 07:28:39;;;;;;;5.15;3.97;;;20.40;99.90;;;;;;4982127;28;20023;-63
2023/07/04 07:31:10;;;;;;;6.38;4.75;;;20.30;99.90;;;;;;4986797;28;20026;-62
2023/07/04 07:33:39;;;;;;;4.75;4.07;;;20.20;99.90;;;;;;4969789;28;20041;-63
2023/07/04 07:36:20;;;;;;;4.45;4.05;;;20.20;99.90;;;;;;4985878;28;20550;-63
2023/07/04 07:38:47;;;;;;;5.35;4.65;;;20.20;99.90;;;;;;4984533;28;20124;-64
2023/07/04 07:41:14;;;;;;;4.75;4.00;;;20.20;99.90;;;;;;4983196;28;20044;-64
2023/07/04 07:43:41;;;;;;;6.47;4.35;;;20.20;99.90;;;;;;4977608;28;20271;-63
2023/07/04 07:46:11;;;;;;;7.13;3.85;;;20.20;99.90;;;;;;4957853;28;21356;-64
2023/07/04 07:48:37;;;;;;;5.15;4.20;;;20.20;99.90;;;;;;4975577;28;20149;-64
2023/07/04 07:51:05;;;;;;;5.78;4.30;;;20.20;99.90;;;;;;4983208;28;20042;-64
2023/07/04 07:53:30;;;;;;;5.03;4.53;;;20.20;99.90;;;;;;4966008;28;20047;-64
2023/07/04 07:55:56;;;;;;;7.38;4.75;;;20.30;99.90;;;;;;4983317;28;20045;-63
2023/07/04 07:58:22;;;;;;;16.80;5.20;;;20.30;99.90;;;;;;4977673;28;20492;-66
2023/07/04 08:00:47;;;;;;;13.07;5.75;;;20.50;99.90;;;;;;4974761;28;20045;-66
2023/07/04 08:03:13;;;;;;;5.78;4.65;;;20.60;99.90;;;;;;4987112;28;20095;-68
2023/07/04 08:05:40;;;;;;;6.63;4.55;;;20.60;99.90;;;;;;4989291;28;20627;-65
2023/07/04 08:08:07;;;;;;;6.28;4.45;;;20.60;99.90;;;;;;4984065;28;20145;-63
2023/07/04 08:10:40;;;;;;;9.80;4.50;;;20.60;99.90;;;;;;4986536;28;20049;-63
2023/07/04 08:13:07;;;;;;;6.85;4.53;;;20.70;99.90;;;;;;4978637;28;20136;-64
2023/07/04 08:15:33;;;;;;;5.80;4.55;;;20.90;99.90;;;;;;4979733;28;20542;-63
2023/07/04 08:18:09;;;;;;;4.70;3.97;;;20.90;99.90;;;;;;4985314;28;20077;-63
2023/07/04 08:20:36;;;;;;;9.25;4.32;;;21.00;99.90;;;;;;4982275;28;20076;-63
2023/07/04 08:23:02;;;;;;;7.55;4.72;;;21.10;99.90;;;;;;4980947;28;20041;-63
2023/07/04 08:25:27;;;;;;;5.25;4.07;;;21.20;99.90;;;;;;4982209;28;20775;-63
2023/07/04 08:27:53;;;;;;;6.78;4.07;;;21.20;99.90;;;;;;4962485;28;20372;-63
2023/07/04 08:30:19;;;;;;;5.40;4.38;;;21.30;99.90;;;;;;4969625;28;20123;-63
2023/07/04 08:32:45;;;;;;;6.15;4.68;;;21.30;99.90;;;;;;4983168;28;20029;-63
2023/07/04 08:35:11;;;;;;;6.18;4.05;;;21.30;99.90;;;;;;4978593;28;20136;-63
2023/07/04 08:37:36;;;;;;;5.40;3.95;;;21.40;99.90;;;;;;4983966;28;20056;-67
2023/07/04 08:40:04;;;;;;;7.25;3.95;;;21.40;99.90;;;;;;4980622;28;20042;-68
2023/07/04 08:42:33;;;;;;;9.40;4.75;;;21.50;99.90;;;;;;4971926;28;20112;-68
2023/07/04 08:44:59;;;;;;;5.07;4.40;;;21.50;99.90;;;;;;4975579;28;20103;-64
2023/07/04 08:47:25;;;;;;;5.80;4.78;;;21.50;99.90;;;;;;4974430;28;20061;-64
2023/07/04 08:50:11;;;;;;;5.65;4.68;;;21.50;99.90;;;;;;4977162;28;20030;-64
2023/07/04 08:52:44;;;;;;;6.47;4.50;;;21.50;99.90;;;;;;4980406;28;20580;-64
2023/07/04 08:55:13;;;;;;;5.55;4.75;;;21.50;99.90;;;;;;4981972;28;20034;-64
2023/07/04 08:57:59;;;;;;;5.55;4.75;;;21.50;99.90;;;;;;4982930;28;20117;-66
2023/07/04 09:00:35;;;;;;;4.95;3.78;;;21.60;99.90;;;;;;4980880;28;20093;-70
2023/07/04 09:03:09;;;;;;;4.05;3.65;;;21.60;99.90;;;;;;4988869;28;20157;-69
2023/07/04 09:06:02;;;;;;;4.00;3.60;;;21.60;99.90;;;;;;4978277;28;20151;-66
2023/07/04 09:08:46;;;;;;;5.20;3.13;;;21.60;99.90;;;;;;4980325;28;20034;-66
2023/07/04 09:11:16;;;;;;;4.70;3.80;;;21.60;99.90;;;;;;4975097;28;20053;-66
2023/07/04 09:13:45;;;;;;;4.43;4.03;;;21.70;99.90;;;;;;4985473;28;20034;-65
2023/07/04 09:16:16;;;;;;;4.47;3.83;;;21.60;99.90;;;;;;4991657;28;20042;-65
2023/07/04 09:19:06;;;;;;;3.85;3.45;;;21.70;99.90;;;;;;4990964;28;20042;-65
2023/07/04 09:21:33;;;;;;;5.28;3.80;;;21.70;99.90;;;;;;4982156;28;20070;-63
2023/07/04 09:24:01;;;;;;;4.38;3.30;;;21.70;99.90;;;;;;4975293;28;20119;-63
2023/07/04 09:26:54;;;;;;;5.93;3.70;;;21.80;99.90;;;;;;4983325;28;20113;-62
2023/07/04 09:29:22;;;;;;;4.15;3.50;;;21.90;99.90;;;;;;4989554;28;20040;-63
2023/07/04 09:32:00;;;;;;;6.70;3.42;;;21.90;99.90;;;;;;4987558;28;20577;-63
2023/07/04 09:34:38;;;;;;;3.80;3.40;;;21.90;99.90;;;;;;4985402;28;20049;-64
2023/07/04 09:37:15;;;;;;;4.38;3.50;;;21.90;99.90;;;;;;4987551;28;24363;-64
2023/07/04 09:39:46;;;;;;;5.28;3.50;;;21.90;99.90;;;;;;4982557;28;20637;-64
2023/07/04 09:42:11;;;;;;;4.93;4.53;;;21.90;99.90;;;;;;4984154;28;20086;-63
2023/07/04 09:44:38;;;;;;;5.68;5.18;;;21.90;99.90;;;;;;4991591;28;20123;-64
2023/07/04 09:47:05;;;;;;;4.00;3.10;;;22.00;99.90;;;;;;4990929;28;20114;-64
2023/07/04 09:49:36;;;;;;;3.80;3.40;;;22.10;99.90;;;;;;4985458;28;20057;-63
2023/07/04 09:52:06;;;;;;;3.40;3.10;;;22.20;99.90;;;;;;4988852;28;20025;-63
2023/07/04 09:54:34;;;;;;;4.22;3.30;;;22.30;99.90;;;;;;4984187;28;20614;-63
2023/07/04 09:57:28;;;;;;;5.15;3.40;;;22.30;99.90;;;;;;4977384;28;20151;-64
2023/07/04 10:00:15;;;;;;;3.95;3.50;;;22.40;99.90;;;;;;4964672;28;20500;-64
2023/07/04 10:02:42;;;;;;;4.15;3.10;;;22.50;99.90;;;;;;4989804;28;20132;-64
2023/07/04 10:05:10;;;;;;;3.53;3.22;;;22.60;99.90;;;;;;4988537;28;20123;-65
2023/07/04 10:07:37;;;;;;;4.07;3.50;;;22.60;99.90;;;;;;4993030;28;20041;-65
2023/07/04 10:10:06;;;;;;;3.88;3.30;;;22.80;99.90;;;;;;4990945;28;20080;-65
2023/07/04 10:12:45;;;;;;;3.92;3.20;;;22.80;99.90;;;;;;4996271;28;20152;-65
2023/07/04 10:15:23;;;;;;;3.70;3.40;;;22.80;99.90;;;;;;4987384;28;20239;-64
2023/07/04 10:17:48;;;;;;;3.72;3.33;;;22.70;99.90;;;;;;4985077;28;20053;-64
2023/07/04 10:20:15;;;;;;;3.55;2.95;;;22.70;99.90;;;;;;4985298;28;20070;-65
2023/07/04 10:22:51;;;;;;;3.50;3.20;;;22.70;99.90;;;;;;4989501;28;20069;-65
2023/07/04 10:25:21;;;;;;;4.30;3.25;;;22.80;99.90;;;;;;4988142;28;20092;-65
2023/07/04 10:27:52;;;;;;;4.55;2.83;;;22.80;99.90;;;;;;4992847;28;20124;-65
2023/07/04 10:30:27;;;;;;;3.75;3.10;;;22.80;99.90;;;;;;4991151;28;20779;-64
2023/07/04 10:33:10;;;;;;;5.20;3.60;;;22.90;99.90;;;;;;4964956;28;20040;-64
2023/07/04 10:35:40;;;;;;;3.10;2.80;;;22.90;99.90;;;;;;4987999;28;20056;-64
2023/07/04 10:38:30;;;;;;;3.25;2.95;;;22.90;99.90;;;;;;4995660;28;20081;-64
2023/07/04 10:40:57;;;;;;;3.47;3.03;;;22.90;99.90;;;;;;4994749;28;20124;-64
2023/07/04 10:43:30;;;;;;;3.88;3.15;;;22.90;99.90;;;;;;4991156;28;20056;-64
2023/07/04 10:45:58;;;;;;;3.40;2.90;;;23.10;99.90;;;;;;4993605;28;20542;-64
2023/07/04 10:48:31;;;;;;;3.47;2.75;;;23.20;99.90;;;;;;4984494;28;20045;-65
2023/07/04 10:51:08;;;;;;;4.65;3.10;;;23.30;99.90;;;;;;4992890;28;20038;-65
2023/07/04 10:53:34;;;;;;;3.45;3.10;;;23.40;99.90;;;;;;4991032;28;20044;-63
2023/07/04 10:56:14;;;;;;;3.40;3.03;;;23.30;99.90;;;;;;4988835;28;20042;-63
2023/07/04 10:58:43;;;;;;;4.47;2.78;;;23.20;99.90;;;;;;4980302;28;20030;-63
2023/07/04 11:01:12;;;;;;;3.28;2.85;;;23.30;99.90;;;;;;4998605;28;20140;-63
2023/07/04 11:03:54;;;;;;;6.35;3.33;;;23.40;99.90;;;;;;4980974;28;20095;-63
2023/07/04 11:06:30;;;;;;;4.15;2.95;;;23.60;99.90;;;;;;4996167;28;20038;-63
2023/07/04 11:08:56;;;;;;;3.20;2.90;;;23.80;99.90;;;;;;4990113;28;20527;-63
2023/07/04 11:11:32;;;;;;;3.47;3.17;;;23.80;99.90;;;;;;4989950;28;20036;-64
2023/07/04 11:14:06;;;;;;;3.20;2.90;;;23.80;99.90;;;;;;4992609;28;20517;-63
2023/07/04 11:16:36;;;;;;;3.08;2.80;;;23.90;99.90;;;;;;4983876;28;20057;-63
2023/07/04 11:19:25;;;;;;;3.55;3.22;;;24.00;99.90;;;;;;4996449;28;20250;-63
2023/07/04 11:22:00;;;;;;;3.38;3.08;;;24.00;99.90;;;;;;4989788;28;20050;-63
2023/07/04 11:24:33;;;;;;;12.23;3.35;;;24.00;99.90;;;;;;4980848;28;20042;-64
2023/07/04 11:27:02;;;;;;;4.13;3.13;;;23.90;99.90;;;;;;4988314;28;20046;-63
2023/07/04 11:29:53;;;;;;;3.90;3.17;;;24.00;99.90;;;;;;4984089;28;20045;-64
2023/07/04 11:32:40;;;;;;;3.47;2.97;;;24.10;99.90;;;;;;4982309;28;20041;-64
2023/07/04 11:35:09;;;;;;;3.97;3.38;;;24.10;99.90;;;;;;4986787;28;20057;-64
2023/07/04 11:37:51;;;;;;;3.75;2.72;;;24.10;99.90;;;;;;4990688;28;20056;-65
2023/07/04 11:40:19;;;;;;;19.98;4.50;;;24.20;99.90;;;;;;4982966;28;20049;-65
2023/07/04 11:42:53;;;;;;;5.10;3.20;;;24.30;99.90;;;;;;4986019;28;20061;-65
2023/07/04 11:45:23;;;;;;;3.38;3.00;;;24.30;99.90;;;;;;4990707;28;20065;-65
2023/07/04 11:48:03;;;;;;;3.97;3.58;;;24.30;99.90;;;;;;4985959;28;20041;-64
2023/07/04 11:50:34;;;;;;;3.05;2.78;;;24.40;99.90;;;;;;4988927;28;20081;-64
2023/07/04 11:53:03;;;;;;;3.45;3.15;;;24.50;99.90;;;;;;4983953;28;20524;-64
2023/07/04 11:55:32;;;;;;;4.35;3.17;;;24.60;99.90;;;;;;4966582;28;20094;-64
2023/07/04 11:58:07;;;;;;;4.57;3.50;;;24.60;99.90;;;;;;4962918;28;20104;-63
2023/07/04 12:00:35;;;;;;;3.45;3.15;;;24.70;99.90;;;;;;4983995;28;20151;-63
2023/07/04 12:03:19;;;;;;;3.78;3.38;;;24.70;99.90;;;;;;4985903;28;20518;-64
2023/07/04 12:05:53;;;;;;;4.38;3.40;;;24.70;99.90;;;;;;4972158;28;20046;-63
2023/07/04 12:08:39;;;;;;;3.45;3.15;;;24.70;99.90;;;;;;4980345;28;20029;-63
2023/07/04 12:11:49;;;;;;;3.95;3.10;;;24.70;99.90;;;;;;4968169;28;20949;-64
2023/07/04 12:14:17;;;;;;;5.35;3.20;;;24.80;99.90;;;;;;4890759;29;20048;-63
2023/07/04 12:16:46;;;;;;;4.63;3.40;;;24.90;99.90;;;;;;4961316;28;20039;-64
2023/07/04 12:19:21;;;;;;;5.75;3.78;;;24.90;99.90;;;;;;4981765;28;20042;-64
2023/07/04 12:21:48;;;;;;;4.55;3.17;;;24.90;99.90;;;;;;4987703;28;20046;-64
2023/07/04 12:24:20;;;;;;;3.80;3.22;;;24.80;99.90;;;;;;4983785;28;20117;-65
2023/07/04 12:26:57;;;;;;;3.70;3.33;;;24.80;99.90;;;;;;4972528;28;21337;-64
2023/07/04 12:29:24;;;;;;;3.63;3.33;;;24.90;99.90;;;;;;4976453;28;20045;-64
2023/07/04 12:32:06;;;;;;;3.80;3.22;;;25.00;99.90;;;;;;4980035;28;20018;-63
2023/07/04 12:34:33;;;;;;;4.63;3.47;;;24.90;99.90;;;;;;4982356;28;21659;-64
2023/07/04 12:37:02;;;;;;;4.18;3.78;;;24.90;99.90;;;;;;4982934;28;20402;-65
2023/07/04 12:39:29;;;;;;;4.78;3.33;;;24.90;99.90;;;;;;4981972;28;20081;-64
2023/07/04 12:41:56;;;;;;;5.05;3.72;;;24.80;99.90;;;;;;4981336;28;20034;-64
2023/07/04 12:44:21;;;;;;;5.70;3.75;;;24.80;99.90;;;;;;4981837;28;20050;-64
2023/07/04 12:46:47;;;;;;;3.63;3.30;;;24.80;99.90;;;;;;4987450;28;20068;-64
2023/07/04 12:49:14;;;;;;;4.93;3.53;;;24.90;99.90;;;;;;4983492;28;20049;-64
2023/07/04 12:51:44;;;;;;;5.90;3.40;;;24.90;99.90;;;;;;4982633;28;20053;-64
2023/07/04 12:54:11;;;;;;;5.95;3.20;;;24.90;99.90;;;;;;4980600;28;20602;-64
2023/07/04 12:56:42;;;;;;;4.85;3.58;;;24.90;99.90;;;;;;4983006;28;20038;-64